Time;durP1;ratioP1;P1;durP2;ratioP2;P2;SDS_P1;SDS_P2;PMS_P1;PMS_P2;Temp;Humidity;BMP_temperature;BMP_pressure;BME280_temperature;BME280_humidity;BME280_pressure;Samples;Min_cycle;Max_cycle;Signal;HPM_P1;HPM_P2
2023/07/29 00:00:27;;;;;;;7.28;3.70;;;;;;;;;;5224984;28;20027;-71
2023/07/29 00:02:58;;;;;;;5.05;2.90;;;;;;;;;;5225558;28;20020;-71
2023/07/29 00:05:28;;;;;;;5.78;3.35;;;;;;;;;;5225316;28;20024;-71
2023/07/29 00:07:58;;;;;;;5.60;2.90;;;;;;;;;;5225144;28;20074;-71
2023/07/29 00:10:29;;;;;;;5.97;2.92;;;;;;;;;;5225145;28;20044;-71
2023/07/29 00:12:59;;;;;;;3.88;3.00;;;;;;;;;;5225333;28;20060;-71
2023/07/29 00:15:29;;;;;;;4.97;3.28;;;;;;;;;;5225107;28;20394;-71
2023/07/29 00:17:59;;;;;;;6.90;3.10;;;;;;;;;;5224819;28;20033;-71
2023/07/29 00:20:30;;;;;;;5.60;2.92;;;;;;;;;;5225261;28;20024;-71
2023/07/29 00:23:01;;;;;;;7.97;2.78;;;;;;;;;;5225075;28;20029;-71
2023/07/29 00:25:31;;;;;;;5.72;2.92;;;;;;;;;;5224531;28;20028;-71
2023/07/29 00:28:02;;;;;;;3.00;2.30;;;;;;;;;;5224518;28;20025;-71
2023/07/29 00:30:32;;;;;;;3.67;2.13;;;;;;;;;;5224830;28;20047;-71
2023/07/29 00:33:02;;;;;;;4.57;2.17;;;;;;;;;;5224959;28;20092;-71
2023/07/29 00:35:32;;;;;;;3.63;2.10;;;;;;;;;;5225112;28;20280;-71
2023/07/29 00:38:03;;;;;;;3.10;1.65;;;;;;;;;;5224215;28;20174;-71
2023/07/29 00:40:35;;;;;;;4.90;1.48;;;;;;;;;;5224848;28;20013;-71
2023/07/29 00:43:05;;;;;;;2.80;1.45;;;;;;;;;;5225037;28;20032;-71
2023/07/29 00:45:36;;;;;;;5.72;1.92;;;;;;;;;;5224417;28;20021;-72
2023/07/29 00:48:06;;;;;;;5.38;1.30;;;;;;;;;;5224396;28;20032;-72
2023/07/29 00:50:36;;;;;;;3.35;1.77;;;;;;;;;;5224391;28;20013;-71
2023/07/29 00:53:07;;;;;;;2.33;1.70;;;;;;;;;;5224833;28;20025;-71
2023/07/29 00:55:37;;;;;;;5.85;1.50;;;;;;;;;;5224436;28;20108;-71
2023/07/29 00:58:07;;;;;;;7.10;2.20;;;;;;;;;;5224350;28;20548;-71
2023/07/29 01:00:38;;;;;;;1.75;1.50;;;;;;;;;;5224756;28;20052;-71
2023/07/29 01:03:08;;;;;;;4.20;1.77;;;;;;;;;;5224753;28;20056;-71
2023/07/29 01:05:46;;;;;;;2.60;1.70;;;;;;;;;;5225014;28;20479;-71
2023/07/29 01:08:24;;;;;;;4.80;1.67;;;;;;;;;;5224921;28;20013;-71
2023/07/29 01:11:14;;;;;;;4.70;1.73;;;;;;;;;;5223752;28;20013;-71
2023/07/29 01:13:50;;;;;;;3.55;1.70;;;;;;;;;;5224516;28;20050;-71
2023/07/29 01:16:20;;;;;;;;;;;;;;;;;;5223226;28;20097;-71
2023/07/29 01:18:52;;;;;;;3.97;1.77;;;;;;;;;;5224588;28;20374;-71
2023/07/29 01:21:25;;;;;;;2.10;1.70;;;;;;;;;;5224885;28;20334;-71
2023/07/29 01:24:11;;;;;;;4.22;1.80;;;;;;;;;;5211435;28;20020;-71
2023/07/29 01:26:41;;;;;;;2.60;1.80;;;;;;;;;;5223935;28;20029;-71
2023/07/29 01:29:11;;;;;;;2.55;1.75;;;;;;;;;;5224827;28;20382;-71
2023/07/29 01:31:44;;;;;;;4.88;2.03;;;;;;;;;;5224357;28;20017;-71
2023/07/29 01:34:19;;;;;;;5.32;1.83;;;;;;;;;;5224010;28;20025;-71
2023/07/29 01:36:50;;;;;;;2.63;2.08;;;;;;;;;;5210582;28;20387;-71
2023/07/29 01:39:22;;;;;;;5.15;2.40;;;;;;;;;;5224163;28;20195;-71
2023/07/29 01:41:52;;;;;;;7.35;2.22;;;;;;;;;;5224397;28;20588;-71
2023/07/29 01:44:23;;;;;;;7.30;1.90;;;;;;;;;;5223936;28;20029;-71
2023/07/29 01:46:54;;;;;;;6.30;2.63;;;;;;;;;;5223040;28;20027;-71
2023/07/29 01:49:25;;;;;;;2.97;1.95;;;;;;;;;;5223986;28;20078;-71
2023/07/29 01:51:55;;;;;;;3.22;2.40;;;;;;;;;;5224515;28;20100;-71
2023/07/29 01:54:25;;;;;;;4.47;2.17;;;;;;;;;;5223781;28;20028;-71
2023/07/29 01:56:56;;;;;;;4.85;2.13;;;;;;;;;;5223564;28;20394;-72
2023/07/29 01:59:27;;;;;;;3.33;2.28;;;;;;;;;;5223126;28;20033;-72
2023/07/29 02:01:57;;;;;;;6.82;2.42;;;;;;;;;;5223922;28;20100;-71
2023/07/29 02:04:27;;;;;;;4.43;2.22;;;;;;;;;;5223663;28;20024;-71
2023/07/29 02:06:58;;;;;;;5.03;2.42;;;;;;;;;;5223221;28;20490;-72
2023/07/29 02:09:30;;;;;;;7.80;2.22;;;;;;;;;;5223149;28;20052;-71
2023/07/29 02:12:01;;;;;;;5.10;2.33;;;;;;;;;;5223659;28;20470;-71
2023/07/29 02:14:31;;;;;;;4.28;2.05;;;;;;;;;;5223650;28;20252;-71
2023/07/29 02:17:02;;;;;;;3.72;2.22;;;;;;;;;;5223214;28;20028;-71
2023/07/29 02:19:32;;;;;;;4.68;2.20;;;;;;;;;;5223962;28;20020;-72
2023/07/29 02:22:03;;;;;;;8.35;1.98;;;;;;;;;;5223089;28;20104;-71
2023/07/29 02:24:33;;;;;;;3.95;2.05;;;;;;;;;;5223512;28;20021;-71
2023/07/29 02:27:04;;;;;;;3.17;2.17;;;;;;;;;;5223024;28;20024;-71
2023/07/29 02:29:34;;;;;;;6.03;2.30;;;;;;;;;;5222622;28;20326;-72
2023/07/29 02:32:04;;;;;;;6.93;2.53;;;;;;;;;;5211408;28;20021;-71
2023/07/29 02:34:35;;;;;;;5.60;2.38;;;;;;;;;;5222965;28;20045;-71
2023/07/29 02:37:05;;;;;;;3.97;2.45;;;;;;;;;;5223051;28;20481;-71
2023/07/29 02:39:36;;;;;;;6.20;2.10;;;;;;;;;;5223232;28;20028;-71
2023/07/29 02:42:06;;;;;;;4.43;2.20;;;;;;;;;;5223397;28;20013;-71
2023/07/29 02:44:36;;;;;;;5.72;2.35;;;;;;;;;;5223428;28;20100;-71
2023/07/29 02:47:06;;;;;;;4.85;2.67;;;;;;;;;;5222618;28;20477;-71
2023/07/29 02:49:37;;;;;;;5.25;2.05;;;;;;;;;;5223110;28;20013;-72
2023/07/29 02:52:07;;;;;;;4.95;2.45;;;;;;;;;;5223567;28;20451;-72
2023/07/29 02:54:37;;;;;;;6.00;2.30;;;;;;;;;;5223315;28;20013;-72
2023/07/29 02:57:08;;;;;;;4.82;2.42;;;;;;;;;;5223028;28;20539;-72
2023/07/29 02:59:38;;;;;;;5.63;2.22;;;;;;;;;;5222688;28;20028;-72
2023/07/29 03:02:08;;;;;;;4.97;2.28;;;;;;;;;;5221709;28;20517;-71
2023/07/29 03:04:38;;;;;;;5.18;2.78;;;;;;;;;;5223346;28;20029;-71
2023/07/29 03:07:09;;;;;;;7.25;2.58;;;;;;;;;;5222683;28;20437;-72
2023/07/29 03:09:41;;;;;;;5.57;2.38;;;;;;;;;;5222918;28;20013;-71
2023/07/29 03:12:12;;;;;;;5.78;2.53;;;;;;;;;;5222537;28;20101;-71
2023/07/29 03:14:42;;;;;;;6.70;2.60;;;;;;;;;;5223086;28;20092;-71
2023/07/29 03:17:12;;;;;;;7.97;2.83;;;;;;;;;;5222244;28;20070;-71
2023/07/29 03:19:42;;;;;;;6.15;2.70;;;;;;;;;;5223057;28;20044;-71
2023/07/29 03:22:13;;;;;;;11.20;2.75;;;;;;;;;;5222886;28;20044;-71
2023/07/29 03:24:43;;;;;;;5.30;2.65;;;;;;;;;;5222437;28;20120;-71
2023/07/29 03:27:15;;;;;;;8.18;2.85;;;;;;;;;;5223031;28;20021;-71
2023/07/29 03:29:46;;;;;;;11.52;3.17;;;;;;;;;;5222746;28;20032;-71
2023/07/29 03:32:16;;;;;;;4.45;2.80;;;;;;;;;;5222926;28;20021;-72
2023/07/29 03:34:46;;;;;;;4.65;2.75;;;;;;;;;;5226819;28;20032;-71
2023/07/29 03:37:16;;;;;;;6.13;3.58;;;;;;;;;;5225891;28;20154;-72
2023/07/29 03:39:47;;;;;;;6.90;2.63;;;;;;;;;;5226575;28;20036;-71
2023/07/29 03:42:18;;;;;;;7.72;2.80;;;;;;;;;;5227088;28;20035;-72
2023/07/29 03:44:48;;;;;;;6.10;2.85;;;;;;;;;;5227017;28;20179;-71
2023/07/29 03:47:18;;;;;;;9.13;2.97;;;;;;;;;;5226187;28;20024;-71
2023/07/29 03:49:48;;;;;;;3.88;2.50;;;;;;;;;;5226124;28;20163;-71
2023/07/29 03:52:19;;;;;;;5.70;3.22;;;;;;;;;;5226569;28;20107;-72
2023/07/29 03:54:49;;;;;;;8.30;3.10;;;;;;;;;;5226740;28;20393;-72
2023/07/29 03:57:19;;;;;;;5.07;2.95;;;;;;;;;;5226102;28;20029;-71
2023/07/29 03:59:49;;;;;;;7.65;2.72;;;;;;;;;;5226215;28;20033;-71
2023/07/29 04:02:20;;;;;;;5.63;3.05;;;;;;;;;;5226029;28;20521;-71
2023/07/29 04:04:50;;;;;;;6.95;3.28;;;;;;;;;;5226599;28;20067;-71
2023/07/29 04:07:20;;;;;;;4.68;2.47;;;;;;;;;;5226069;28;20021;-71
2023/07/29 04:09:51;;;;;;;10.48;3.03;;;;;;;;;;5226039;28;20445;-71
2023/07/29 04:12:21;;;;;;;6.60;2.88;;;;;;;;;;5225742;28;20039;-71
2023/07/29 04:14:51;;;;;;;4.50;3.25;;;;;;;;;;5226009;28;20029;-71
2023/07/29 04:17:22;;;;;;;6.30;2.95;;;;;;;;;;5225458;28;20471;-71
2023/07/29 04:19:52;;;;;;;8.13;2.75;;;;;;;;;;5226198;28;20112;-71
2023/07/29 04:22:22;;;;;;;8.45;2.72;;;;;;;;;;5216746;28;20024;-71
2023/07/29 04:24:53;;;;;;;8.43;3.33;;;;;;;;;;5218748;28;20497;-71
2023/07/29 04:27:24;;;;;;;6.20;2.80;;;;;;;;;;5219934;28;20037;-71
2023/07/29 04:29:54;;;;;;;6.60;2.95;;;;;;;;;;5225420;28;20506;-71
2023/07/29 04:32:25;;;;;;;7.07;3.45;;;;;;;;;;5220532;28;20235;-71
2023/07/29 04:34:55;;;;;;;5.80;2.75;;;;;;;;;;5225424;28;20147;-71
2023/07/29 04:37:26;;;;;;;6.55;3.58;;;;;;;;;;5224736;28;20100;-71
2023/07/29 04:39:56;;;;;;;15.13;4.03;;;;;;;;;;5225059;28;20106;-71
2023/07/29 04:42:26;;;;;;;4.65;2.90;;;;;;;;;;5225496;28;20032;-71
2023/07/29 04:44:57;;;;;;;12.82;3.42;;;;;;;;;;5224391;28;20029;-71
2023/07/29 04:47:27;;;;;;;5.55;3.10;;;;;;;;;;5225204;28;20140;-71
2023/07/29 04:49:58;;;;;;;5.78;3.33;;;;;;;;;;5225193;28;20029;-71
2023/07/29 04:52:28;;;;;;;5.40;2.72;;;;;;;;;;5225266;28;20024;-71
2023/07/29 04:54:58;;;;;;;4.22;2.63;;;;;;;;;;5225365;28;20086;-71
2023/07/29 04:57:29;;;;;;;5.85;2.60;;;;;;;;;;5225088;28;20032;-71
2023/07/29 04:59:59;;;;;;;4.72;2.85;;;;;;;;;;5225140;28;20024;-71
2023/07/29 05:02:29;;;;;;;4.60;2.67;;;;;;;;;;5224727;28;20039;-71
2023/07/29 05:05:00;;;;;;;5.55;2.55;;;;;;;;;;5225211;28;20029;-71
2023/07/29 05:07:30;;;;;;;6.75;2.70;;;;;;;;;;5224786;28;20028;-71
2023/07/29 05:10:00;;;;;;;4.68;2.67;;;;;;;;;;5225135;28;20017;-71
2023/07/29 05:12:32;;;;;;;6.63;2.22;;;;;;;;;;5225744;28;20017;-72
2023/07/29 05:15:03;;;;;;;7.43;2.67;;;;;;;;;;5224477;28;20543;-71
2023/07/29 05:17:33;;;;;;;3.45;2.30;;;;;;;;;;5224723;28;20097;-72
2023/07/29 05:20:03;;;;;;;4.07;2.38;;;;;;;;;;5224885;28;20024;-72
2023/07/29 05:22:34;;;;;;;6.47;2.42;;;;;;;;;;5225018;28;20024;-72
2023/07/29 05:25:04;;;;;;;4.65;2.83;;;;;;;;;;5224771;28;20067;-71
2023/07/29 05:27:35;;;;;;;5.10;2.47;;;;;;;;;;5223997;28;20105;-72
2023/07/29 05:30:06;;;;;;;4.13;2.60;;;;;;;;;;5224436;28;20005;-71
2023/07/29 05:32:36;;;;;;;5.15;2.20;;;;;;;;;;5225196;28;20425;-71
2023/07/29 05:35:07;;;;;;;5.53;2.83;;;;;;;;;;5224464;28;20104;-71
2023/07/29 05:37:38;;;;;;;3.35;2.28;;;;;;;;;;5223956;28;20040;-72
2023/07/29 05:40:09;;;;;;;7.78;2.70;;;;;;;;;;5224159;28;20047;-72
2023/07/29 05:42:39;;;;;;;4.93;2.20;;;;;;;;;;5224738;28;20064;-71
2023/07/29 05:45:09;;;;;;;4.00;2.38;;;;;;;;;;5224547;28;20024;-72
2023/07/29 05:47:39;;;;;;;6.97;2.28;;;;;;;;;;5223565;28;20055;-72
2023/07/29 05:50:10;;;;;;;4.55;2.40;;;;;;;;;;5224265;28;20070;-72
2023/07/29 05:52:40;;;;;;;6.85;2.30;;;;;;;;;;5223627;28;20534;-71
2023/07/29 05:55:10;;;;;;;2.85;1.95;;;;;;;;;;5223916;28;20482;-72
2023/07/29 05:57:41;;;;;;;6.47;2.35;;;;;;;;;;5223273;28;20021;-71
2023/07/29 06:00:11;;;;;;;7.95;2.67;;;;;;;;;;5223939;28;20382;-71
2023/07/29 06:02:41;;;;;;;6.05;2.45;;;;;;;;;;5223981;28;20032;-72
2023/07/29 06:05:12;;;;;;;5.60;2.67;;;;;;;;;;5223791;28;20021;-72
2023/07/29 06:07:44;;;;;;;3.03;2.00;;;;;;;;;;5223551;28;20487;-71
2023/07/29 06:13:01;;;;;;;11.85;2.20;;;;;;;;;;5223698;28;20024;-71
2023/07/29 06:15:31;;;;;;;5.65;2.05;;;;;;;;;;5223091;28;20019;-72
2023/07/29 06:18:02;;;;;;;3.58;1.90;;;;;;;;;;5223192;28;20016;-72
2023/07/29 06:20:32;;;;;;;2.80;1.70;;;;;;;;;;5222973;28;20031;-72
2023/07/29 06:23:03;;;;;;;6.55;2.05;;;;;;;;;;5223315;28;20387;-71
2023/07/29 06:25:34;;;;;;;5.38;2.05;;;;;;;;;;5223028;28;20303;-72
2023/07/29 06:28:04;;;;;;;2.75;1.50;;;;;;;;;;5222607;28;20021;-72
2023/07/29 06:30:35;;;;;;;3.53;1.90;;;;;;;;;;5223355;28;20375;-72
2023/07/29 06:33:05;;;;;;;2.75;1.85;;;;;;;;;;5223239;28;20023;-71
2023/07/29 06:35:35;;;;;;;5.75;2.05;;;;;;;;;;5223061;28;20025;-72
2023/07/29 06:38:06;;;;;;;3.45;1.73;;;;;;;;;;5222797;28;20425;-71
2023/07/29 06:40:36;;;;;;;6.43;1.88;;;;;;;;;;5222960;28;20017;-71
2023/07/29 06:43:06;;;;;;;8.48;2.22;;;;;;;;;;5223325;28;20044;-71
2023/07/29 06:45:36;;;;;;;3.22;1.55;;;;;;;;;;5223225;28;20398;-71
2023/07/29 06:48:07;;;;;;;3.53;1.60;;;;;;;;;;5221498;28;20100;-72
2023/07/29 06:50:37;;;;;;;4.45;1.88;;;;;;;;;;5222083;28;20028;-71
2023/07/29 06:53:07;;;;;;;3.15;1.70;;;;;;;;;;5209463;28;20027;-71
2023/07/29 06:55:39;;;;;;;4.22;1.58;;;;;;;;;;5219869;28;20074;-71
2023/07/29 06:58:09;;;;;;;6.20;1.50;;;;;;;;;;5220082;28;20024;-71
2023/07/29 07:00:39;;;;;;;4.70;1.50;;;;;;;;;;5220306;28;20017;-71
2023/07/29 07:03:10;;;;;;;3.97;1.27;;;;;;;;;;5221256;28;20527;-71
2023/07/29 07:05:40;;;;;;;2.00;1.30;;;;;;;;;;5220458;28;20629;-71
2023/07/29 07:08:10;;;;;;;2.72;1.10;;;;;;;;;;5221446;28;20074;-71
2023/07/29 07:10:41;;;;;;;2.25;1.27;;;;;;;;;;5223662;28;20056;-71
2023/07/29 07:13:11;;;;;;;1.85;1.45;;;;;;;;;;5224115;28;20474;-72
2023/07/29 07:15:41;;;;;;;3.15;1.10;;;;;;;;;;5224231;28;20052;-71
2023/07/29 07:18:12;;;;;;;3.35;1.48;;;;;;;;;;5223311;28;20389;-72
2023/07/29 07:20:42;;;;;;;4.15;1.52;;;;;;;;;;5224863;28;20025;-71
2023/07/29 07:23:13;;;;;;;3.00;1.40;;;;;;;;;;5225063;28;20238;-71
2023/07/29 07:25:43;;;;;;;2.30;1.42;;;;;;;;;;5224355;28;20632;-71
2023/07/29 07:28:13;;;;;;;3.13;1.33;;;;;;;;;;5224593;28;20029;-71
2023/07/29 07:30:44;;;;;;;5.07;1.52;;;;;;;;;;5224287;28;20020;-71
2023/07/29 07:33:14;;;;;;;2.92;1.33;;;;;;;;;;5224949;28;20021;-71
2023/07/29 07:35:45;;;;;;;1.80;1.23;;;;;;;;;;5224861;28;20025;-71
2023/07/29 07:38:15;;;;;;;2.22;1.10;;;;;;;;;;5224751;28;20056;-71
2023/07/29 07:41:04;;;;;;;1.83;1.30;;;;;;;;;;5223635;28;20405;-71
2023/07/29 07:43:34;;;;;;;3.03;1.20;;;;;;;;;;5224245;28;20044;-71
2023/07/29 07:46:04;;;;;;;2.13;1.10;;;;;;;;;;5224351;28;20386;-71
2023/07/29 07:48:35;;;;;;;2.97;1.45;;;;;;;;;;5224583;28;20079;-71
2023/07/29 07:51:23;;;;;;;3.47;1.20;;;;;;;;;;5224400;28;20021;-71
2023/07/29 07:53:54;;;;;;;3.33;1.27;;;;;;;;;;5224641;28;20176;-71
2023/07/29 07:56:24;;;;;;;5.43;1.02;;;;;;;;;;5223687;28;20024;-71
2023/07/29 07:58:54;;;;;;;1.77;1.10;;;;;;;;;;5223857;28;20032;-71
2023/07/29 08:01:25;;;;;;;1.50;0.90;;;;;;;;;;5224447;28;20021;-71
2023/07/29 08:03:55;;;;;;;2.70;1.35;;;;;;;;;;5222270;28;20044;-70
2023/07/29 08:06:25;;;;;;;2.10;1.33;;;;;;;;;;5223809;28;20123;-72
2023/07/29 08:08:56;;;;;;;1.30;1.02;;;;;;;;;;5223891;28;20126;-71
2023/07/29 08:11:26;;;;;;;2.72;1.10;;;;;;;;;;5223813;28;20505;-71
2023/07/29 08:13:57;;;;;;;1.38;1.00;;;;;;;;;;5224757;28;20020;-71
2023/07/29 08:16:28;;;;;;;2.08;1.20;;;;;;;;;;5223963;28;20013;-71
2023/07/29 08:18:58;;;;;;;4.05;1.45;;;;;;;;;;5223908;28;20017;-71
2023/07/29 08:21:28;;;;;;;5.03;1.10;;;;;;;;;;5223861;28;20501;-72
2023/07/29 08:23:59;;;;;;;2.85;1.15;;;;;;;;;;5224379;28;20029;-72
2023/07/29 08:26:29;;;;;;;3.53;0.93;;;;;;;;;;5223595;28;20036;-72
2023/07/29 08:28:59;;;;;;;5.30;1.20;;;;;;;;;;5224084;28;20025;-72
2023/07/29 08:31:33;;;;;;;3.25;1.08;;;;;;;;;;5221639;28;20021;-72
2023/07/29 08:34:03;;;;;;;2.10;1.10;;;;;;;;;;5223947;28;20102;-72
2023/07/29 08:36:33;;;;;;;1.90;1.05;;;;;;;;;;5221768;28;20048;-72
2023/07/29 08:39:04;;;;;;;5.32;1.27;;;;;;;;;;5222745;28;20401;-72
2023/07/29 08:41:40;;;;;;;3.25;1.15;;;;;;;;;;5223204;28;20021;-72
2023/07/29 08:44:10;;;;;;;2.55;1.00;;;;;;;;;;5223870;28;20025;-72
2023/07/29 08:46:41;;;;;;;1.77;1.17;;;;;;;;;;5223882;28;20040;-72
2023/07/29 08:49:13;;;;;;;3.03;0.60;;;;;;;;;;5223355;28;20028;-72
2023/07/29 08:51:44;;;;;;;3.08;1.30;;;;;;;;;;5222624;28;20013;-72
2023/07/29 08:54:14;;;;;;;2.00;1.08;;;;;;;;;;5223523;28;20543;-72
2023/07/29 08:56:45;;;;;;;2.22;0.93;;;;;;;;;;5224101;28;20028;-72
2023/07/29 08:59:17;;;;;;;1.67;1.27;;;;;;;;;;5222233;28;20025;-72
2023/07/29 09:01:47;;;;;;;6.78;1.10;;;;;;;;;;5223404;28;20024;-73
2023/07/29 09:04:18;;;;;;;3.47;1.20;;;;;;;;;;5222920;28;20037;-72
2023/07/29 09:06:50;;;;;;;2.30;1.13;;;;;;;;;;5222506;28;20102;-72
2023/07/29 09:09:20;;;;;;;2.20;1.20;;;;;;;;;;5222879;28;20032;-72
2023/07/29 09:11:51;;;;;;;1.95;1.15;;;;;;;;;;5222418;28;20474;-72
2023/07/29 09:14:21;;;;;;;2.47;1.20;;;;;;;;;;5223347;28;20047;-72
2023/07/29 09:16:52;;;;;;;3.13;1.10;;;;;;;;;;5221732;28;20025;-72
2023/07/29 09:19:25;;;;;;;2.92;1.20;;;;;;;;;;5222894;28;20020;-72
2023/07/29 09:21:55;;;;;;;1.83;1.30;;;;;;;;;;5221969;28;20024;-72
2023/07/29 09:24:29;;;;;;;1.83;1.40;;;;;;;;;;5222032;28;20017;-72
2023/07/29 09:26:59;;;;;;;1.50;1.23;;;;;;;;;;5221973;28;20009;-72
2023/07/29 09:29:31;;;;;;;1.92;1.40;;;;;;;;;;5221994;28;20621;-72
2023/07/29 09:32:17;;;;;;;1.80;1.17;;;;;;;;;;5220854;28;20021;-72
2023/07/29 09:34:48;;;;;;;1.83;1.20;;;;;;;;;;5222345;28;20028;-72
2023/07/29 09:37:37;;;;;;;3.83;1.60;;;;;;;;;;5221967;28;20293;-72
2023/07/29 09:40:13;;;;;;;4.00;1.67;;;;;;;;;;5209295;28;20424;-72
2023/07/29 09:43:02;;;;;;;4.10;1.92;;;;;;;;;;5222241;28;20021;-72
2023/07/29 09:45:34;;;;;;;3.00;1.73;;;;;;;;;;5222377;28;20151;-72
2023/07/29 09:48:09;;;;;;;5.22;1.98;;;;;;;;;;5221505;28;20021;-72
2023/07/29 09:50:40;;;;;;;1.55;1.02;;;;;;;;;;5222218;28;20021;-72
2023/07/29 09:53:11;;;;;;;3.22;1.75;;;;;;;;;;5222907;28;20056;-72
2023/07/29 09:55:45;;;;;;;2.95;1.58;;;;;;;;;;5221883;28;20052;-72
2023/07/29 09:58:35;;;;;;;3.97;1.80;;;;;;;;;;5222523;28;20082;-72
2023/07/29 10:01:06;;;;;;;4.00;1.50;;;;;;;;;;5221924;28;20025;-72
2023/07/29 10:03:37;;;;;;;5.60;1.90;;;;;;;;;;5222177;28;20028;-72
2023/07/29 10:06:07;;;;;;;5.45;1.73;;;;;;;;;;5220974;28;20063;-72
2023/07/29 10:08:39;;;;;;;2.72;1.75;;;;;;;;;;5221839;28;20017;-72
2023/07/29 10:11:10;;;;;;;4.47;1.73;;;;;;;;;;5221793;28;20082;-72
2023/07/29 10:13:40;;;;;;;4.00;1.58;;;;;;;;;;5222047;28;20100;-72
2023/07/29 10:16:11;;;;;;;3.28;1.92;;;;;;;;;;5221962;28;20534;-72
2023/07/29 10:18:42;;;;;;;2.20;1.70;;;;;;;;;;5221622;28;20085;-72
2023/07/29 10:21:13;;;;;;;1.98;1.58;;;;;;;;;;5221304;28;20091;-72
2023/07/29 10:23:48;;;;;;;5.15;1.95;;;;;;;;;;5221659;28;20224;-72
2023/07/29 10:26:20;;;;;;;2.75;1.60;;;;;;;;;;5221317;28;20024;-72
2023/07/29 10:28:52;;;;;;;3.33;1.70;;;;;;;;;;5221798;28;20029;-70
2023/07/29 10:31:23;;;;;;;2.97;1.88;;;;;;;;;;5221297;28;20032;-71
2023/07/29 10:33:54;;;;;;;2.45;1.67;;;;;;;;;;5220995;28;20021;-72
2023/07/29 10:36:25;;;;;;;5.00;1.90;;;;;;;;;;5220500;28;20036;-72
2023/07/29 10:38:56;;;;;;;3.97;1.70;;;;;;;;;;5221211;28;20025;-71
2023/07/29 10:41:46;;;;;;;2.00;1.60;;;;;;;;;;5221187;28;20017;-72
2023/07/29 10:44:35;;;;;;;5.38;1.67;;;;;;;;;;5221172;28;20402;-72
2023/07/29 10:47:24;;;;;;;4.68;1.65;;;;;;;;;;5220931;28;20074;-72
2023/07/29 10:49:55;;;;;;;1.65;1.33;;;;;;;;;;5208699;28;20067;-72
2023/07/29 10:52:44;;;;;;;3.10;1.40;;;;;;;;;;5220237;28;20021;-72
2023/07/29 10:55:26;;;;;;;3.05;1.60;;;;;;;;;;5221340;28;20521;-72
2023/07/29 10:58:07;;;;;;;2.08;1.33;;;;;;;;;;5208521;28;20379;-72
2023/07/29 11:00:38;;;;;;;2.63;1.60;;;;;;;;;;5216097;28;20079;-72
2023/07/29 11:03:09;;;;;;;2.33;1.48;;;;;;;;;;5215174;28;20514;-72
2023/07/29 11:05:55;;;;;;;4.55;1.73;;;;;;;;;;5220126;28;20074;-73
2023/07/29 11:08:27;;;;;;;2.60;1.30;;;;;;;;;;5219364;28;20098;-72
2023/07/29 11:11:16;;;;;;;2.53;1.30;;;;;;;;;;5215628;28;20022;-72
2023/07/29 11:13:46;;;;;;;3.83;1.80;;;;;;;;;;5217046;28;20029;-71
2023/07/29 11:16:17;;;;;;;3.72;1.70;;;;;;;;;;5220674;28;20094;-72
2023/07/29 11:18:48;;;;;;;8.00;1.85;;;;;;;;;;5217932;28;20032;-73
2023/07/29 11:21:18;;;;;;;6.43;1.77;;;;;;;;;;5220023;28;20025;-73
2023/07/29 11:23:48;;;;;;;4.97;1.05;;;;;;;;;;5224323;28;20061;-73
2023/07/29 11:26:18;;;;;;;5.75;1.58;;;;;;;;;;5217235;28;20052;-73
2023/07/29 11:28:49;;;;;;;4.65;1.63;;;;;;;;;;5225101;28;20432;-73
2023/07/29 11:31:38;;;;;;;2.78;1.70;;;;;;;;;;5223588;28;20291;-72
2023/07/29 11:34:10;;;;;;;4.85;1.58;;;;;;;;;;5219666;28;20025;-72
2023/07/29 11:36:43;;;;;;;6.03;1.77;;;;;;;;;;5219661;28;20048;-72
2023/07/29 11:39:13;;;;;;;3.00;1.90;;;;;;;;;;5219752;28;20028;-72
2023/07/29 11:41:44;;;;;;;3.05;2.00;;;;;;;;;;5221072;28;20370;-72
2023/07/29 11:44:29;;;;;;;4.20;2.17;;;;;;;;;;5219452;28;20028;-73
2023/07/29 11:47:00;;;;;;;5.18;2.58;;;;;;;;;;5219249;28;20486;-73
2023/07/29 11:49:31;;;;;;;5.72;2.40;;;;;;;;;;5222169;28;20017;-72
2023/07/29 11:52:03;;;;;;;8.40;2.90;;;;;;;;;;5219499;28;20367;-72
2023/07/29 11:54:35;;;;;;;9.98;2.53;;;;;;;;;;5218400;28;20103;-72
2023/07/29 11:57:07;;;;;;;6.90;2.70;;;;;;;;;;5222707;28;20099;-72
2023/07/29 11:59:37;;;;;;;5.35;3.20;;;;;;;;;;5223376;28;20017;-72
2023/07/29 12:02:10;;;;;;;6.47;3.13;;;;;;;;;;5222133;28;20044;-72
2023/07/29 12:04:41;;;;;;;5.15;3.35;;;;;;;;;;5220096;28;20147;-72
2023/07/29 12:07:12;;;;;;;4.43;2.85;;;;;;;;;;5218887;28;20127;-72
2023/07/29 12:09:43;;;;;;;5.93;3.13;;;;;;;;;;5223154;28;20021;-73
2023/07/29 12:12:13;;;;;;;4.35;2.20;;;;;;;;;;5223072;28;20028;-72
2023/07/29 12:14:45;;;;;;;3.13;2.13;;;;;;;;;;5224464;28;20021;-72
2023/07/29 12:17:15;;;;;;;4.00;2.33;;;;;;;;;;5222011;28;20047;-72
2023/07/29 12:19:46;;;;;;;4.13;2.65;;;;;;;;;;5221898;28;20017;-73
2023/07/29 12:22:18;;;;;;;5.40;2.28;;;;;;;;;;5221588;28;20020;-73
2023/07/29 12:24:51;;;;;;;3.28;2.55;;;;;;;;;;5223188;28;20025;-72
2023/07/29 12:27:22;;;;;;;3.90;2.03;;;;;;;;;;5223176;28;20564;-72
2023/07/29 12:29:53;;;;;;;5.03;2.40;;;;;;;;;;5219977;28;20021;-73
2023/07/29 12:32:25;;;;;;;5.00;2.00;;;;;;;;;;5218662;28;20009;-72
2023/07/29 12:34:55;;;;;;;2.92;2.22;;;;;;;;;;5223374;28;20086;-72
2023/07/29 12:37:44;;;;;;;2.45;1.90;;;;;;;;;;5223011;28;20028;-73
2023/07/29 12:40:33;;;;;;;3.80;1.60;;;;;;;;;;5220371;28;20017;-72
2023/07/29 12:43:03;;;;;;;2.42;2.00;;;;;;;;;;5222216;28;21068;-72
2023/07/29 12:45:36;;;;;;;4.68;2.00;;;;;;;;;;5215146;28;20056;-71
2023/07/29 12:48:07;;;;;;;2.22;1.95;;;;;;;;;;5222679;28;20043;-72
2023/07/29 12:50:38;;;;;;;3.28;2.20;;;;;;;;;;5221338;28;20398;-72
2023/07/29 12:53:10;;;;;;;3.03;1.95;;;;;;;;;;5215483;28;20120;-72
2023/07/29 12:55:41;;;;;;;5.63;1.95;;;;;;;;;;5219312;28;20033;-72
2023/07/29 12:58:11;;;;;;;2.20;1.77;;;;;;;;;;5219600;28;20032;-72
2023/07/29 13:00:41;;;;;;;3.78;1.60;;;;;;;;;;5226739;28;20086;-72
2023/07/29 13:03:12;;;;;;;3.40;2.15;;;;;;;;;;5222871;28;20136;-72
2023/07/29 13:05:42;;;;;;;3.05;1.73;;;;;;;;;;5223737;28;20043;-71
2023/07/29 13:08:12;;;;;;;3.95;1.80;;;;;;;;;;5221932;28;20033;-72
2023/07/29 13:10:43;;;;;;;3.67;1.90;;;;;;;;;;5212660;28;20021;-72
2023/07/29 13:13:13;;;;;;;3.78;2.25;;;;;;;;;;5219346;28;20021;-72
2023/07/29 13:15:44;;;;;;;4.80;1.77;;;;;;;;;;5217983;28;20028;-72
2023/07/29 13:18:14;;;;;;;3.70;2.33;;;;;;;;;;5222739;28;20024;-71
2023/07/29 13:20:45;;;;;;;2.47;1.92;;;;;;;;;;5221495;28;20382;-72
2023/07/29 13:23:15;;;;;;;2.42;1.88;;;;;;;;;;5221719;28;20020;-72
2023/07/29 13:25:46;;;;;;;1.98;1.77;;;;;;;;;;5221989;28;20103;-72
2023/07/29 13:28:16;;;;;;;2.28;1.48;;;;;;;;;;5223463;28;20025;-72
2023/07/29 13:30:47;;;;;;;4.20;2.55;;;;;;;;;;5219366;28;20390;-72
2023/07/29 13:33:17;;;;;;;2.47;1.65;;;;;;;;;;5221788;28;20070;-72
2023/07/29 13:35:47;;;;;;;3.30;2.08;;;;;;;;;;5224181;28;20024;-72
2023/07/29 13:38:19;;;;;;;3.92;2.10;;;;;;;;;;5226537;28;20013;-72
2023/07/29 13:40:50;;;;;;;4.25;1.88;;;;;;;;;;5222197;28;20036;-72
2023/07/29 13:43:22;;;;;;;3.13;1.65;;;;;;;;;;5221249;28;20017;-72
2023/07/29 13:45:58;;;;;;;1.77;1.50;;;;;;;;;;5206990;28;20061;-72
2023/07/29 13:48:28;;;;;;;2.17;1.85;;;;;;;;;;5203918;28;20052;-72
2023/07/29 13:50:59;;;;;;;2.38;1.92;;;;;;;;;;5217893;28;20458;-72
2023/07/29 13:53:30;;;;;;;2.90;1.83;;;;;;;;;;5221342;28;20328;-72
2023/07/29 13:56:00;;;;;;;2.88;1.77;;;;;;;;;;5220695;28;20028;-72
2023/07/29 13:58:30;;;;;;;3.63;2.08;;;;;;;;;;5222208;28;20021;-73
2023/07/29 14:01:01;;;;;;;3.03;1.88;;;;;;;;;;5222286;28;20474;-73
2023/07/29 14:03:31;;;;;;;2.08;1.88;;;;;;;;;;5221653;28;20501;-72
2023/07/29 14:06:04;;;;;;;3.25;2.33;;;;;;;;;;5222425;28;20029;-72
2023/07/29 14:08:35;;;;;;;3.33;2.00;;;;;;;;;;5219721;28;20613;-72
2023/07/29 14:11:06;;;;;;;2.63;2.25;;;;;;;;;;5221771;28;20108;-72
2023/07/29 14:13:40;;;;;;;2.25;2.00;;;;;;;;;;5221262;28;20013;-72
2023/07/29 14:16:10;;;;;;;4.25;2.00;;;;;;;;;;5220004;28;20043;-72
2023/07/29 14:18:41;;;;;;;2.78;2.08;;;;;;;;;;5220145;28;20013;-72
2023/07/29 14:21:12;;;;;;;3.55;2.63;;;;;;;;;;5221643;28;20220;-72
2023/07/29 14:23:42;;;;;;;2.72;2.17;;;;;;;;;;5226334;28;20047;-72
2023/07/29 14:26:13;;;;;;;3.08;2.08;;;;;;;;;;5225011;28;20288;-72
2023/07/29 14:28:43;;;;;;;2.83;2.20;;;;;;;;;;5221340;28;20063;-72
2023/07/29 14:31:13;;;;;;;2.45;2.25;;;;;;;;;;5220479;28;20112;-72
2023/07/29 14:33:44;;;;;;;2.75;2.00;;;;;;;;;;5221779;28;20129;-72
2023/07/29 14:36:14;;;;;;;2.35;2.00;;;;;;;;;;5220737;28;20466;-72
2023/07/29 14:38:45;;;;;;;4.40;2.30;;;;;;;;;;5221460;28;20031;-72
2023/07/29 14:41:15;;;;;;;3.20;2.20;;;;;;;;;;5220902;28;20020;-72
2023/07/29 14:43:45;;;;;;;4.55;2.30;;;;;;;;;;5221211;28;20459;-71
2023/07/29 14:46:16;;;;;;;2.08;1.70;;;;;;;;;;5221027;28;20056;-72
2023/07/29 14:48:46;;;;;;;3.78;1.88;;;;;;;;;;5220837;28;20021;-72
2023/07/29 14:51:17;;;;;;;3.20;2.00;;;;;;;;;;5221490;28;20472;-72
2023/07/29 14:53:47;;;;;;;2.90;1.92;;;;;;;;;;5223689;28;20551;-72
2023/07/29 14:56:18;;;;;;;2.10;1.80;;;;;;;;;;5220297;28;20078;-72
2023/07/29 14:58:50;;;;;;;3.40;1.80;;;;;;;;;;5221149;28;20483;-72
2023/07/29 15:01:20;;;;;;;1.75;1.65;;;;;;;;;;5220865;28;20023;-72
2023/07/29 15:03:50;;;;;;;2.13;1.83;;;;;;;;;;5219518;28;20028;-72
2023/07/29 15:06:21;;;;;;;3.13;1.98;;;;;;;;;;5219139;28;20029;-72
2023/07/29 15:08:51;;;;;;;2.42;1.60;;;;;;;;;;5217152;28;20033;-72
2023/07/29 15:11:21;;;;;;;1.88;1.65;;;;;;;;;;5220840;28;20013;-72